Portada
METAR-TAF:

METAR-TAF

Aeroports :

Maurici, Maurici

latitud: 20-26S, longitud: 057-40E, altitud: 55 m

Observació

L'informe es va fer fa 58 minuts, a les 22:00 UTC
Vent 4 kt del Est
Temperatura 22°C
Humitat 88%
Pressió 1019 hPa
Visibilitat 10 km o més
Escasses núvols a una alçada de 1800 ft

METAR: FIMP 232200Z 09004KT 9999 FEW018 22/20 Q1019

Hora: 02:58 (22:58 UTC)

Pronòstic

L'informe es va fer fa 5 hores i 58 minuts, a les 17:00 UTC
Pronòstic vàlid del 23 a les 18 UTC al 25 a les 00 UTC
Vent 2 kt del Nord/Nord-Oest
Visibilitat 10 km o més
Escasses núvols a una alçada de 1800 ft
Evolucionant progressivament
l' 24 a les 04 UTC al 24 a les 06 UTC
Vent 8 kt del Est/Nord-Est

TAF: FIMP 231700Z 2318/2500 33002KT 9999 FEW018 BECMG 2404/2406 07008KT

Observacions i pronòstics meteorològics de més de 4000 aeroports (METAR i TAF).

Les estacions disponibles són els punts grocs i vermells al mapa.

Posi el ratolí al punt desitjat per veure el nom de l'estació.

Feu clic per veure les observacions i els pronòstics meteorològics.

Per canviar el mapa: feu clic els botons verds amb una creu de color negre per apropar; al botó verd amb un guió per allunyar la imatge; o en les fletxes verdes per a mapes adjacents.


METAR-TAF: